createdAt,value
2018-05-23T00:01:15.592Z,90.44
2018-05-23T00:03:44.720Z,89.32
2018-05-23T00:06:13.891Z,89.14
2018-05-23T00:08:42.931Z,89.61
2018-05-23T00:11:23.349Z,86.33
2018-05-23T00:13:58.363Z,86.40
2018-05-23T00:16:27.423Z,88.79
2018-05-23T00:18:56.629Z,88.97
2018-05-23T00:21:25.671Z,88.92
2018-05-23T00:23:55.590Z,89.19
2018-05-23T00:26:24.616Z,89.66
2018-05-23T00:28:53.679Z,89.74
2018-05-23T00:31:23.035Z,90.17
2018-05-23T00:33:52.175Z,90.11
2018-05-23T00:36:21.279Z,89.98
2018-05-23T00:38:50.517Z,90.75
2018-05-23T00:41:19.781Z,90.89
2018-05-23T00:43:49.000Z,91.74
2018-05-23T00:46:18.277Z,92.53
2018-05-23T00:48:47.305Z,93.17
2018-05-23T00:51:16.774Z,93.50
2018-05-23T00:53:46.040Z,94.03
2018-05-23T00:56:15.099Z,93.78
2018-05-23T00:58:44.267Z,94.09
2018-05-23T01:01:13.984Z,94.00
2018-05-23T01:03:42.948Z,94.47
2018-05-23T01:06:12.180Z,94.79
2018-05-23T01:08:41.648Z,94.99
2018-05-23T01:11:10.672Z,95.26
2018-05-23T01:13:40.184Z,95.45
2018-05-23T01:16:09.275Z,95.42
2018-05-23T01:18:38.783Z,95.53
2018-05-23T01:21:08.055Z,95.45
2018-05-23T01:23:38.551Z,94.64
2018-05-23T01:26:07.708Z,94.21
2018-05-23T01:28:36.807Z,94.17
2018-05-23T01:31:05.946Z,92.78
2018-05-23T01:33:35.303Z,92.44
2018-05-23T01:36:04.604Z,92.28
2018-05-23T01:38:33.943Z,91.64
2018-05-23T01:41:02.932Z,91.96
2018-05-23T01:43:31.862Z,92.17
2018-05-23T01:46:00.993Z,91.94
2018-05-23T01:48:41.406Z,92.37
2018-05-23T01:51:10.657Z,92.62
2018-05-23T01:53:39.934Z,93.30
2018-05-23T01:56:09.026Z,93.88
2018-05-23T01:58:38.142Z,95.02
2018-05-23T02:01:07.200Z,95.16
2018-05-23T02:03:36.151Z,94.27
2018-05-23T02:06:05.849Z,95.76
2018-05-23T02:08:34.907Z,96.59
2018-05-23T02:11:03.824Z,96.91
2018-05-23T02:13:32.931Z,97.10
2018-05-23T02:16:02.162Z,98.05
2018-05-23T02:18:31.328Z,99.24
2018-05-23T02:21:00.363Z,99.67
2018-05-23T02:23:29.727Z,99.49
2018-05-23T02:25:58.687Z,99.11
2018-05-23T02:28:27.763Z,99.22
2018-05-23T02:30:57.062Z,99.35
2018-05-23T02:33:26.243Z,99.24
2018-05-23T02:35:55.458Z,99.35
2018-05-23T02:38:24.749Z,98.72
2018-05-23T02:40:53.924Z,99.00
2018-05-23T02:43:23.026Z,100.00
2018-05-23T02:45:52.052Z,99.33
2018-05-23T02:48:21.283Z,98.77
2018-05-23T02:50:50.223Z,99.33
2018-05-23T02:53:19.227Z,99.78
2018-05-23T02:55:48.290Z,98.80
2018-05-23T02:58:17.618Z,98.99
2018-05-23T03:00:46.564Z,99.59
2018-05-23T03:03:15.484Z,99.22
2018-05-23T03:05:44.676Z,99.06
2018-05-23T03:08:13.748Z,99.35
2018-05-23T03:10:42.905Z,98.53
2018-05-23T03:13:12.197Z,98.33
2018-05-23T03:15:41.411Z,97.82
2018-05-23T03:18:10.459Z,97.56
2018-05-23T03:20:39.608Z,97.39
2018-05-23T03:23:08.652Z,97.61
2018-05-23T03:25:38.260Z,97.02
2018-05-23T03:28:07.399Z,96.89
2018-05-23T03:30:36.763Z,96.61
2018-05-23T03:33:06.459Z,95.70
2018-05-23T03:35:35.480Z,94.34
2018-05-23T03:38:04.519Z,94.10
2018-05-23T03:40:33.459Z,90.89
2018-05-23T03:43:02.707Z,91.86
2018-05-23T03:45:31.631Z,91.58
2018-05-23T03:48:00.616Z,91.32
2018-05-23T03:50:29.887Z,91.45
2018-05-23T03:52:58.815Z,92.33
2018-05-23T03:55:27.927Z,92.58
2018-05-23T03:57:57.019Z,93.58
2018-05-23T04:00:37.327Z,93.35
2018-05-23T04:03:17.416Z,92.33
2018-05-23T04:05:57.846Z,92.74
2018-05-23T04:08:26.738Z,92.48
2018-05-23T04:10:55.926Z,92.43
2018-05-23T04:13:24.860Z,91.95
2018-05-23T04:15:53.807Z,92.23
2018-05-23T04:18:22.751Z,92.23
2018-05-23T04:20:52.031Z,93.66
2018-05-23T04:23:21.305Z,94.39
2018-05-23T04:25:50.351Z,92.91
2018-05-23T04:28:19.399Z,92.24
2018-05-23T04:30:48.769Z,93.90
2018-05-23T04:33:17.963Z,93.32
2018-05-23T04:35:47.070Z,92.76
2018-05-23T04:38:16.171Z,92.20
2018-05-23T04:40:45.560Z,92.29
2018-05-23T04:43:14.653Z,93.02
2018-05-23T04:45:43.580Z,92.35
2018-05-23T04:48:12.959Z,92.71
2018-05-23T04:50:42.260Z,93.01
2018-05-23T04:53:11.392Z,92.75
2018-05-23T04:55:40.863Z,91.68
2018-05-23T04:58:09.815Z,91.54
2018-05-23T05:00:39.159Z,91.65
2018-05-23T05:03:08.490Z,92.08
2018-05-23T05:05:37.812Z,91.24
2018-05-23T05:08:06.875Z,90.93
2018-05-23T05:10:36.091Z,90.33
2018-05-23T05:13:05.649Z,89.38
2018-05-23T05:15:34.809Z,88.42
2018-05-23T05:18:04.024Z,88.50
2018-05-23T05:20:33.297Z,87.87
2018-05-23T05:23:02.308Z,88.09
2018-05-23T05:25:31.570Z,88.44
2018-05-23T05:28:00.757Z,88.63
2018-05-23T05:30:29.987Z,88.00
2018-05-23T05:32:59.355Z,86.80
2018-05-23T05:35:28.326Z,85.92
2018-05-23T05:37:57.584Z,84.92
2018-05-23T05:40:26.915Z,85.32
2018-05-23T05:42:56.124Z,86.16
2018-05-23T05:45:25.361Z,85.60
2018-05-23T05:47:54.307Z,85.55
2018-05-23T05:50:23.399Z,83.94
2018-05-23T05:52:52.720Z,82.00
2018-05-23T05:55:25.802Z,82.02
2018-05-23T05:57:55.103Z,83.50
2018-05-23T06:00:27.006Z,83.90
2018-05-23T06:02:56.509Z,82.38
2018-05-23T06:05:25.575Z,81.36
2018-05-23T06:07:54.822Z,80.86
2018-05-23T06:10:23.807Z,76.08
2018-05-23T06:12:53.127Z,75.96
2018-05-23T06:15:22.164Z,76.01
2018-05-23T06:17:52.079Z,76.35
2018-05-23T06:20:21.423Z,74.84
2018-05-23T06:22:50.569Z,75.81
2018-05-23T06:25:19.838Z,70.27
2018-05-23T06:27:49.186Z,68.22
2018-05-23T06:30:18.372Z,73.05
2018-05-23T06:32:47.484Z,71.69
2018-05-23T06:35:16.683Z,68.94
2018-05-23T06:37:46.188Z,68.93
2018-05-23T06:40:15.369Z,74.44
2018-05-23T06:42:44.695Z,73.90
2018-05-23T06:45:14.058Z,72.96
2018-05-23T06:47:43.164Z,65.45
2018-05-23T06:50:12.264Z,63.38
2018-05-23T06:52:41.259Z,60.91
2018-05-23T06:55:10.577Z,64.38
2018-05-23T06:57:39.675Z,62.81
2018-05-23T07:00:08.973Z,59.37
2018-05-23T07:02:38.035Z,61.41
2018-05-23T07:05:07.076Z,59.76
2018-05-23T07:07:36.475Z,57.66
2018-05-23T07:10:06.050Z,59.92
2018-05-23T07:12:35.111Z,61.78
2018-05-23T07:15:04.439Z,60.98
2018-05-23T07:17:33.639Z,59.96
2018-05-23T07:20:02.823Z,61.07
2018-05-23T07:22:32.048Z,58.24
2018-05-23T07:25:01.012Z,58.27
2018-05-23T07:27:29.957Z,60.87
2018-05-23T07:29:58.957Z,60.09
2018-05-23T07:32:27.987Z,59.60
2018-05-23T07:34:56.907Z,59.94
2018-05-23T07:37:26.450Z,59.88
2018-05-23T07:39:55.512Z,57.16
2018-05-23T07:42:24.611Z,56.80
2018-05-23T07:44:53.705Z,58.18
2018-05-23T07:47:23.008Z,58.50
2018-05-23T07:49:52.301Z,55.78
2018-05-23T07:52:21.268Z,56.54
2018-05-23T07:54:50.324Z,56.67
2018-05-23T07:57:19.436Z,55.59
2018-05-23T07:59:49.111Z,55.29
2018-05-23T08:02:18.080Z,57.63
2018-05-23T08:04:47.505Z,54.79
2018-05-23T08:07:16.568Z,56.06
2018-05-23T08:09:45.639Z,55.54
2018-05-23T08:12:15.133Z,53.15
2018-05-23T08:14:44.166Z,53.80
2018-05-23T08:17:13.233Z,58.67
2018-05-23T08:19:42.389Z,56.06
2018-05-23T08:22:11.583Z,55.37
2018-05-23T08:24:40.720Z,58.12
2018-05-23T08:27:10.092Z,55.75
2018-05-23T08:29:39.231Z,55.53
2018-05-23T08:32:08.433Z,56.18
2018-05-23T08:34:37.479Z,58.54
2018-05-23T08:37:06.989Z,58.22
2018-05-23T08:39:36.091Z,59.24
2018-05-23T08:42:05.421Z,57.03
2018-05-23T08:44:34.494Z,57.92
2018-05-23T08:47:03.775Z,58.32
2018-05-23T08:49:32.884Z,58.35
2018-05-23T08:52:02.088Z,57.52
2018-05-23T08:54:31.312Z,59.47
2018-05-23T08:57:00.350Z,56.24
2018-05-23T08:59:29.430Z,59.46
2018-05-23T09:01:58.779Z,58.56
2018-05-23T09:04:27.795Z,60.07
2018-05-23T09:06:56.826Z,62.57
2018-05-23T09:09:25.907Z,60.86
2018-05-23T09:11:55.032Z,58.35
2018-05-23T09:14:24.153Z,58.96
2018-05-23T09:16:53.513Z,57.96
2018-05-23T09:19:22.700Z,61.53
2018-05-23T09:21:51.986Z,60.21
2018-05-23T09:24:20.979Z,61.37
2018-05-23T09:26:50.109Z,61.03
2018-05-23T09:29:19.314Z,60.62
2018-05-23T09:31:48.485Z,61.49
2018-05-23T09:34:18.404Z,62.22
2018-05-23T09:36:47.708Z,61.95
2018-05-23T09:39:17.031Z,60.87
2018-05-23T09:41:46.181Z,62.81
2018-05-23T09:44:15.757Z,60.09
2018-05-23T09:46:44.812Z,61.12
2018-05-23T09:49:14.012Z,57.76
2018-05-23T09:51:43.107Z,61.33
2018-05-23T09:54:12.235Z,60.35
2018-05-23T09:56:41.298Z,58.93
2018-05-23T09:59:10.269Z,60.19
2018-05-23T10:01:39.603Z,59.89
2018-05-23T10:04:09.268Z,58.27
2018-05-23T10:06:38.746Z,58.53
2018-05-23T10:09:07.915Z,59.39
2018-05-23T10:11:37.096Z,61.05
2018-05-23T10:14:06.523Z,55.98
2018-05-23T10:16:35.603Z,60.15
2018-05-23T10:19:04.656Z,57.34
2018-05-23T10:21:33.913Z,61.35
2018-05-23T10:24:03.157Z,58.49
2018-05-23T10:26:32.400Z,59.18
2018-05-23T10:29:01.790Z,61.70
2018-05-23T10:31:31.215Z,61.29
2018-05-23T10:34:03.260Z,60.95
2018-05-23T10:36:35.028Z,61.11
2018-05-23T10:39:07.758Z,59.95
2018-05-23T10:41:38.851Z,58.78
2018-05-23T10:44:08.418Z,56.16
2018-05-23T10:46:39.303Z,59.27
2018-05-23T10:49:08.439Z,60.46
2018-05-23T10:51:38.717Z,59.67
2018-05-23T10:54:08.679Z,57.83
2018-05-23T10:56:38.421Z,56.59
2018-05-23T10:59:09.227Z,58.47
2018-05-23T11:01:38.260Z,59.17
2018-05-23T11:04:09.060Z,59.46
2018-05-23T11:06:38.329Z,60.23
2018-05-23T11:09:07.506Z,59.55
2018-05-23T11:11:37.620Z,62.90
2018-05-23T11:14:07.161Z,61.45
2018-05-23T11:16:36.448Z,61.48
2018-05-23T11:19:05.647Z,61.89
2018-05-23T11:21:34.831Z,62.51
2018-05-23T11:24:04.392Z,63.84
2018-05-23T11:26:36.347Z,62.09
2018-05-23T11:29:06.173Z,62.73
2018-05-23T11:31:35.324Z,62.98
2018-05-23T11:34:04.437Z,60.23
2018-05-23T11:36:33.432Z,60.94
2018-05-23T11:39:02.532Z,60.87
2018-05-23T11:41:31.776Z,60.02
2018-05-23T11:44:00.941Z,60.01
2018-05-23T11:46:30.014Z,59.62
2018-05-23T11:49:00.155Z,59.83
2018-05-23T11:51:29.348Z,59.86
2018-05-23T11:53:58.583Z,59.95
2018-05-23T11:56:27.661Z,61.14
2018-05-23T11:58:56.849Z,60.85
2018-05-23T12:01:26.074Z,59.92
2018-05-23T12:03:58.231Z,58.67
2018-05-23T12:06:28.067Z,60.01
2018-05-23T12:08:57.244Z,59.12
2018-05-23T12:11:27.293Z,58.49
2018-05-23T12:13:57.313Z,61.00
2018-05-23T12:16:26.325Z,58.13
2018-05-23T12:18:55.343Z,58.20
2018-05-23T12:21:24.716Z,55.27
2018-05-23T12:23:55.293Z,54.83
2018-05-23T12:26:25.231Z,57.22
2018-05-23T12:28:54.932Z,56.32
2018-05-23T12:31:26.100Z,56.48
2018-05-23T12:33:56.896Z,59.37
2018-05-23T12:36:26.128Z,57.18
2018-05-23T12:38:56.455Z,57.30
2018-05-23T12:41:26.197Z,55.82
2018-05-23T12:43:55.305Z,55.53
2018-05-23T12:46:25.144Z,56.05
2018-05-23T12:48:55.114Z,55.82
2018-05-23T12:51:24.660Z,54.93
2018-05-23T12:53:53.729Z,54.19
2018-05-23T12:56:22.852Z,53.99
2018-05-23T12:58:52.221Z,55.48
2018-05-23T13:01:22.354Z,55.76
2018-05-23T13:03:51.771Z,55.21
2018-05-23T13:06:21.515Z,54.90
2018-05-23T13:08:50.577Z,54.16
2018-05-23T13:11:19.775Z,54.27
2018-05-23T13:13:49.842Z,51.13
2018-05-23T13:16:18.797Z,49.78
2018-05-23T13:18:47.861Z,47.51
2018-05-23T13:21:16.948Z,45.72
2018-05-23T13:23:45.942Z,44.01
2018-05-23T13:26:14.904Z,44.29
2018-05-23T13:28:44.209Z,44.50
2018-05-23T13:31:13.164Z,43.13
2018-05-23T13:33:42.443Z,42.06
2018-05-23T13:36:11.557Z,43.67
2018-05-23T13:38:40.894Z,41.86
2018-05-23T13:41:11.322Z,43.22
2018-05-23T13:46:15.897Z,47.01
2018-05-23T13:48:46.541Z,43.44
2018-05-23T13:51:15.693Z,40.21
2018-05-23T13:53:44.811Z,41.42
2018-05-23T13:56:14.023Z,41.06
2018-05-23T13:58:43.319Z,41.81
2018-05-23T14:01:12.606Z,42.87
2018-05-23T14:03:41.866Z,43.58
2018-05-23T14:06:10.795Z,41.84
2018-05-23T14:08:39.947Z,43.04
2018-05-23T14:11:09.147Z,45.53
2018-05-23T14:13:38.255Z,46.17
2018-05-23T14:16:07.504Z,46.20
2018-05-23T14:18:36.474Z,45.43
2018-05-23T14:21:05.612Z,43.18
2018-05-23T14:23:34.861Z,44.38
2018-05-23T14:26:04.083Z,43.35
2018-05-23T14:28:33.120Z,44.44
2018-05-23T14:31:02.122Z,42.71
2018-05-23T14:33:31.212Z,44.46
2018-05-23T14:36:00.287Z,42.96
2018-05-23T14:38:29.315Z,42.56
2018-05-23T14:40:58.275Z,40.89
2018-05-23T14:43:27.622Z,43.17
2018-05-23T14:45:56.781Z,44.86
2018-05-23T14:48:25.845Z,44.96
2018-05-23T14:50:55.009Z,44.90
2018-05-23T14:53:24.406Z,43.99
2018-05-23T14:55:53.415Z,45.17
2018-05-23T14:58:22.412Z,42.33
2018-05-23T15:00:51.997Z,43.78
2018-05-23T15:03:21.076Z,42.29
2018-05-23T15:05:50.050Z,41.52
2018-05-23T15:08:19.008Z,40.00
2018-05-23T15:10:48.102Z,42.11
2018-05-23T15:13:17.387Z,43.58
2018-05-23T15:15:46.745Z,42.71
2018-05-23T15:18:15.737Z,42.85
2018-05-23T15:20:44.889Z,43.00
2018-05-23T15:23:13.844Z,43.21
2018-05-23T15:25:42.828Z,41.95
2018-05-23T15:28:11.748Z,47.07
2018-05-23T15:30:40.702Z,47.44
2018-05-23T15:33:09.567Z,44.55
2018-05-23T15:35:38.565Z,42.68
2018-05-23T15:38:07.468Z,43.79
2018-05-23T15:40:36.593Z,44.15
2018-05-23T15:43:05.597Z,49.89
2018-05-23T15:45:34.445Z,49.67
2018-05-23T15:48:03.637Z,48.51
2018-05-23T15:50:32.669Z,47.98
2018-05-23T15:53:01.551Z,44.08
2018-05-23T15:55:30.350Z,44.20
2018-05-23T15:57:59.231Z,43.50
2018-05-23T16:00:28.217Z,45.82
2018-05-23T16:02:57.110Z,46.51
2018-05-23T16:05:25.955Z,46.14
2018-05-23T16:07:54.941Z,49.38
2018-05-23T16:10:23.935Z,49.14
2018-05-23T16:12:52.904Z,49.59
2018-05-23T16:15:21.764Z,49.10
2018-05-23T16:17:50.571Z,49.20
2018-05-23T16:20:19.573Z,49.77
2018-05-23T16:22:48.451Z,54.23
2018-05-23T16:25:17.305Z,56.75
2018-05-23T16:27:46.231Z,58.18
2018-05-23T16:30:15.297Z,57.91
2018-05-23T16:32:44.469Z,58.56
2018-05-23T16:35:13.504Z,59.88
2018-05-23T16:37:42.292Z,60.46
2018-05-23T16:40:11.544Z,61.96
2018-05-23T16:42:40.579Z,60.49
2018-05-23T16:45:09.553Z,62.21
2018-05-23T16:47:38.623Z,61.33
2018-05-23T16:50:07.482Z,62.83
2018-05-23T16:52:36.661Z,63.22
2018-05-23T16:55:05.767Z,67.53
2018-05-23T16:57:35.367Z,68.49
2018-05-23T17:00:04.451Z,68.24
2018-05-23T17:02:33.304Z,71.06
2018-05-23T17:05:02.240Z,74.33
2018-05-23T17:07:31.187Z,74.22
2018-05-23T17:10:00.196Z,73.21
2018-05-23T17:12:29.468Z,73.70
2018-05-23T17:14:58.483Z,75.39
2018-05-23T17:17:27.420Z,75.74
2018-05-23T17:19:56.435Z,76.14
2018-05-23T17:22:25.568Z,75.26
2018-05-23T17:24:54.668Z,76.58
2018-05-23T17:27:23.920Z,77.24
2018-05-23T17:29:52.817Z,78.72
2018-05-23T17:32:21.835Z,78.28
2018-05-23T17:34:50.956Z,78.28
2018-05-23T17:37:19.889Z,79.76
2018-05-23T17:39:49.035Z,79.32
2018-05-23T17:42:18.236Z,80.98
2018-05-23T17:44:47.271Z,81.61
2018-05-23T17:47:16.584Z,81.16
2018-05-23T17:49:45.641Z,81.13
2018-05-23T17:52:14.777Z,81.49
2018-05-23T17:54:43.945Z,81.58
2018-05-23T17:57:13.312Z,82.09
2018-05-23T17:59:42.424Z,82.32
2018-05-23T18:02:11.645Z,84.24
2018-05-23T18:04:40.768Z,85.08
2018-05-23T18:07:09.869Z,83.98
2018-05-23T18:09:39.356Z,85.64
2018-05-23T18:12:08.443Z,85.40
2018-05-23T18:14:37.878Z,84.64
2018-05-23T18:17:06.926Z,84.88
2018-05-23T18:19:35.965Z,85.54
2018-05-23T18:22:05.066Z,84.87
2018-05-23T18:24:34.103Z,84.51
2018-05-23T18:27:03.208Z,86.61
2018-05-23T18:29:32.461Z,85.59
2018-05-23T18:32:01.499Z,84.66
2018-05-23T18:34:30.495Z,85.91
2018-05-23T18:37:00.310Z,85.92
2018-05-23T18:39:29.260Z,85.62
2018-05-23T18:41:58.293Z,86.36
2018-05-23T18:44:27.262Z,86.42
2018-05-23T18:46:56.020Z,86.52
2018-05-23T18:49:25.212Z,86.29
2018-05-23T18:51:54.151Z,86.43
2018-05-23T18:54:23.088Z,86.73
2018-05-23T18:56:52.004Z,86.41
2018-05-23T18:59:20.971Z,87.96
2018-05-23T19:01:50.042Z,87.67
2018-05-23T19:04:18.952Z,86.63
2018-05-23T19:06:48.086Z,87.11
2018-05-23T19:09:17.134Z,87.02
2018-05-23T19:11:47.204Z,87.31
2018-05-23T19:14:16.418Z,87.13
2018-05-23T19:16:45.318Z,87.40
2018-05-23T19:19:14.695Z,88.58
2018-05-23T19:21:43.758Z,87.87
2018-05-23T19:24:12.753Z,88.28
2018-05-23T19:26:41.733Z,87.40
2018-05-23T19:29:10.483Z,88.00
2018-05-23T19:31:39.675Z,88.46
2018-05-23T19:34:08.634Z,89.33
2018-05-23T19:36:37.579Z,87.25
2018-05-23T19:39:06.536Z,87.81
2018-05-23T19:41:35.477Z,87.94
2018-05-23T19:44:04.393Z,88.48
2018-05-23T19:46:34.673Z,88.99
2018-05-23T19:49:03.626Z,88.85
2018-05-23T19:51:32.535Z,89.25
2018-05-23T19:54:01.609Z,88.07
2018-05-23T19:56:31.529Z,86.71
2018-05-23T19:59:00.461Z,86.53
2018-05-23T20:01:29.618Z,87.20
2018-05-23T20:03:58.568Z,87.51
2018-05-23T20:06:27.540Z,87.48
2018-05-23T20:08:56.676Z,88.68
2018-05-23T20:11:25.657Z,89.48
2018-05-23T20:13:54.687Z,90.25
2018-05-23T20:16:23.884Z,91.77
2018-05-23T20:18:52.692Z,91.14
2018-05-23T20:21:21.664Z,88.42
2018-05-23T20:23:50.893Z,88.74
2018-05-23T20:26:19.606Z,88.02
2018-05-23T20:28:48.416Z,88.37
2018-05-23T20:31:17.908Z,88.02
2018-05-23T20:33:46.620Z,89.61
2018-05-23T20:36:15.553Z,88.29
2018-05-23T20:38:44.575Z,89.82
2018-05-23T20:41:13.991Z,90.79
2018-05-23T20:43:42.761Z,91.33
2018-05-23T20:46:11.525Z,92.58
2018-05-23T20:48:40.528Z,92.48
2018-05-23T20:53:31.719Z,92.01
2018-05-23T20:56:00.493Z,92.54
2018-05-23T20:58:29.492Z,93.23
2018-05-23T21:00:58.452Z,92.55
2018-05-23T21:03:27.213Z,92.96
2018-05-23T21:05:56.053Z,91.44
2018-05-23T21:08:24.979Z,90.94
2018-05-23T21:10:54.744Z,89.68
2018-05-23T21:13:23.495Z,89.02
2018-05-23T21:15:52.217Z,90.54
2018-05-23T21:18:21.001Z,91.25
2018-05-23T21:20:49.746Z,88.06
2018-05-23T21:23:18.412Z,89.25
2018-05-23T21:25:47.302Z,91.39
2018-05-23T21:28:16.147Z,91.33
2018-05-23T21:30:44.922Z,90.61
2018-05-23T21:33:13.885Z,90.58
2018-05-23T21:35:42.725Z,90.96
2018-05-23T21:38:11.660Z,93.20
2018-05-23T21:40:40.435Z,93.95
2018-05-23T21:43:09.305Z,89.93
2018-05-23T21:45:38.133Z,91.04
2018-05-23T21:48:06.867Z,92.45
2018-05-23T21:50:35.739Z,91.72
2018-05-23T21:53:04.615Z,89.49
2018-05-23T21:55:33.473Z,89.99
2018-05-23T21:58:02.295Z,90.42
2018-05-23T22:00:31.306Z,89.47
2018-05-23T22:03:00.119Z,89.74
2018-05-23T22:05:29.108Z,91.09
2018-05-23T22:07:57.931Z,90.04
2018-05-23T22:10:26.683Z,89.14
2018-05-23T22:12:55.475Z,90.47
2018-05-23T22:15:25.437Z,91.42
2018-05-23T22:17:54.322Z,90.77
2018-05-23T22:20:23.184Z,92.30
2018-05-23T22:22:52.133Z,90.58
2018-05-23T22:25:21.112Z,89.55
2018-05-23T22:27:49.987Z,89.97
2018-05-23T22:30:18.899Z,90.03
2018-05-23T22:32:47.811Z,90.56
2018-05-23T22:35:16.609Z,91.12
2018-05-23T22:37:45.448Z,89.56
2018-05-23T22:40:14.343Z,91.81
2018-05-23T22:42:43.218Z,91.65
2018-05-23T22:45:12.019Z,91.48
2018-05-23T22:47:40.907Z,90.67
2018-05-23T22:50:09.813Z,91.17
2018-05-23T22:52:38.699Z,90.58
2018-05-23T22:55:07.704Z,92.43
2018-05-23T22:57:36.631Z,90.93
2018-05-23T23:00:05.429Z,89.85
2018-05-23T23:02:33.956Z,90.68
2018-05-23T23:05:02.902Z,90.35
2018-05-23T23:07:31.929Z,89.54
2018-05-23T23:10:00.824Z,93.20
2018-05-23T23:12:29.703Z,92.72
2018-05-23T23:14:58.764Z,93.01
2018-05-23T23:17:27.939Z,95.02
2018-05-23T23:19:57.176Z,95.32
2018-05-23T23:22:37.668Z,93.73
2018-05-23T23:25:06.786Z,94.03
2018-05-23T23:27:36.040Z,93.01
2018-05-23T23:30:05.245Z,93.66
2018-05-23T23:32:34.276Z,92.59
2018-05-23T23:35:03.279Z,92.80
2018-05-23T23:37:32.433Z,92.19
2018-05-23T23:40:01.480Z,93.57
2018-05-23T23:42:30.556Z,93.31
2018-05-23T23:44:59.707Z,94.99
2018-05-23T23:47:29.720Z,93.89
2018-05-23T23:49:58.807Z,92.29
2018-05-23T23:52:28.002Z,93.60
2018-05-23T23:54:56.985Z,92.06
2018-05-23T23:57:26.083Z,92.30
2018-05-23T23:59:55.127Z,93.00
